• Join FlightAware (Why Join?)
  • Login
  • US Flag 
06:02PM EDT


 

Airport Tracker/Info


-or-


 

Live Flight TrackerFlight Track Log ✈ AM317 ✈ 18-Aug-2013 ✈ YSHT - YMEN / MEB

Flight Track Log - Related Links

Times and Time Zones

All times are in EDT time to prevent confusion due to time zone crossing. See the AM317 flight status page for this flight to view local times or setup timezone preferences in your user account.

Time Position Orientation Groundspeed Altitude Reporting Facility
EDT Latitude Longitude Course Direction KTS MPH feet Rate Location/Type
01:25AM -36.4020 145.3960 350° North 128 147 1,600  Level FlightAware
01:25AM -36.3990 145.3940 332° Northwest 123 142 1,800 1,560 Climbing FlightAware
01:25AM -36.3960 145.3880 302° West 130 150 2,000 1,200 Climbing FlightAware
01:25AM -36.3960 145.3840 270° West 140 161 2,100 1,800 Climbing FlightAware
01:25AM -36.3970 145.3800 253° West 144 166 2,300 1,500 Climbing FlightAware
01:25AM -36.4020 145.3740 224° Southwest 158 182 2,500 1,500 Climbing FlightAware
01:25AM -36.4060 145.3730 191° South 168 193 2,700 1,680 Climbing FlightAware
01:25AM -36.4150 145.3740 175° South 183 211 2,900 1,680 Climbing FlightAware
01:26AM -36.4190 145.3760 158° South 187 215 3,100 1,800 Climbing FlightAware
01:26AM -36.4380 145.3910 148° Southeast 187 215 3,800 1,560 Climbing FlightAware
01:26AM -36.4550 145.3970 164° South 184 212 4,300 1,620 Climbing FlightAware
01:27AM -36.4730 145.4000 172° South 191 220 4,900 1,500 Climbing FlightAware
01:27AM -36.4860 145.4010 176° South 193 222 5,200 1,500 Climbing FlightAware
01:27AM -36.5040 145.4030 175° South 195 224 5,800 1,800 Climbing FlightAware
01:28AM -36.5210 145.4050 175° South 196 226 6,400 2,100 Climbing FlightAware
01:28AM -36.5400 145.4060 178° South 194 223 7,200 2,460 Climbing FlightAware
01:28AM -36.5570 145.4080 175° South 175 201 8,100 2,520 Climbing FlightAware
01:29AM -36.5770 145.4100 175° South 164 189 9,100 2,160 Climbing FlightAware
01:29AM -36.5970 145.4120 175° South 175 201 9,900 1,980 Climbing FlightAware
01:30AM -36.6250 145.4140 177° South 177 204 11,100 1,860 Climbing FlightAware
01:30AM -36.6560 145.4170 176° South 182 209 12,100 1,500 Climbing FlightAware
01:31AM -36.6910 145.4200 176° South 213 245 13,000 720 Climbing FlightAware
01:31AM -36.7240 145.4230 176° South 243 280 13,000  Level FlightAware
01:32AM -36.7660 145.4280 175° South 268 308 13,000  Level FlightAware
01:33AM -36.8210 145.4330 176° South 262 302 13,000  Level FlightAware
01:33AM -36.8660 145.4380 175° South 272 313 13,000  Level FlightAware
01:34AM -36.9090 145.4420 176° South 261 300 13,000 -300 Level FlightAware
01:34AM -36.9497 145.4453 176° South 267 307 12,700  Descending Aus ATC (RADAR)
01:34AM -36.9530 145.4460 176° South 258 297 13,000  Climbing FlightAware
01:35AM -36.9933 145.4493 176° South 269 310 12,700  Descending Aus ATC (RADAR)
01:35AM -36.9950 145.4500 176° South 271 312 13,000 420 Climbing FlightAware
01:36AM -37.0400 145.4540 176° South 275 316 13,000  Level FlightAware
01:36AM -37.0840 145.4580 176° South 273 314 13,000  Level FlightAware
01:37AM -37.1290 145.4630 175° South 273 314 13,000 -300 Level FlightAware
01:37AM -37.1704 145.4663 175° South 275 316 12,700  Descending Aus ATC (RADAR)
01:37AM -37.1730 145.4670 175° South 278 320 13,000 900 Climbing FlightAware
01:38AM -37.1920 145.4760 159° South 294 338 13,000  Level FlightAware
01:38AM -37.2240 145.5120 138° Southeast 305 351 13,000  Level FlightAware
01:39AM -37.2640 145.5580 138° Southeast 297 342 13,000 -180 Level FlightAware
01:39AM -37.3020 145.6020 137° Southeast 312 359 12,800 -600 Descending FlightAware
01:40AM -37.3460 145.6510 137° Southeast 322 371 12,300 -1,200 Descending FlightAware
01:40AM -37.3482 145.6533 137° Southeast 313 360 12,000 -900 Descending Aus ATC (RADAR)
01:41AM -37.3850 145.6950 138° Southeast 323 372 11,800 -660 Descending FlightAware
01:41AM -37.4240 145.7370 139° Southeast 316 364 11,300 -780 Descending FlightAware
01:42AM -37.4630 145.7790 139° Southeast 320 368 10,900 -780 Descending FlightAware
01:42AM -37.4810 145.7930 148° Southeast 313 360 10,700 -960 Descending FlightAware
01:42AM -37.4950 145.7960 170° South 288 331 10,500 -720 Descending FlightAware
01:43AM -37.5430 145.7880 188° South 226 260 10,100 -180 Descending FlightAware
01:43AM -37.5760 145.7840 185° South 215 247 10,300 240 Climbing FlightAware
01:44AM -37.5840 145.7810 197° South 193 222 10,300  Level FlightAware
01:44AM -37.5910 145.7750 214° Southwest 179 206 10,300  Level FlightAware
01:44AM -37.5960 145.7640 240° Southwest 163 188 10,300  Level FlightAware
01:44AM -37.6030 145.7380 251° West 155 178 10,300  Level FlightAware
01:45AM -37.6120 145.7080 249° West 164 189 10,300  Level FlightAware
01:46AM -37.6210 145.6730 252° West 162 186 10,300  Level FlightAware
01:46AM -37.6300 145.6410 250° West 174 200 10,300  Level FlightAware
01:47AM -37.6400 145.6060 250° West 187 215 10,300  Level FlightAware
01:47AM -37.6500 145.5690 251° West 200 230 10,300 -120 Level FlightAware
01:48AM -37.6610 145.5300 250° West 206 237 10,200 -420 Descending FlightAware
01:48AM -37.6660 145.5120 251° West 212 244 10,000 -1,080 Descending FlightAware
01:49AM -37.6720 145.4890 252° West 213 245 9,600 -1,200 Descending FlightAware
01:49AM -37.6790 145.4660 249° West 215 247 9,200 -1,200 Descending FlightAware
01:49AM -37.6840 145.4480 251° West 215 247 8,900 -1,260 Descending FlightAware
01:49AM -37.6900 145.4240 252° West 213 245 8,500 -1,080 Descending FlightAware
01:50AM -37.6980 145.4010 246° West 215 247 8,200 -1,080 Descending FlightAware
01:50AM -37.7120 145.3680 242° Southwest 215 247 7,600 -1,140 Descending FlightAware
01:51AM -37.7210 145.3460 243° Southwest 216 249 7,300 -1,080 Descending FlightAware
01:51AM -37.7320 145.3180 244° Southwest 208 239 6,800 -960 Descending FlightAware
01:51AM -37.7410 145.2970 242° Southwest 199 229 6,600 -840 Descending FlightAware
01:52AM -37.7450 145.2870 243° Southwest 200 230 6,400 -1,080 Descending FlightAware
01:52AM -37.7560 145.2620 241° Southwest 195 224 6,000 -960 Descending FlightAware
01:52AM -37.7650 145.2410 242° Southwest 195 224 5,700 -1,080 Descending FlightAware
01:53AM -37.7690 145.2270 250° West 197 227 5,400 -1,080 Descending FlightAware
01:53AM -37.7760 145.1970 254° West 203 234 5,000 -1,080 Descending FlightAware
01:53AM -37.7800 145.1790 254° West 204 235 4,700 -1,200 Descending FlightAware
01:54AM -37.7840 145.1560 258° West 198 228 4,300 -1,020 Descending FlightAware
01:54AM -37.7830 145.1340 273° West 200 230 4,000 -900 Descending FlightAware
01:54AM -37.7840 145.1220 264° West 200 230 3,800 -840 Descending FlightAware
01:55AM -37.7860 145.0880 266° West 191 220 3,500 -720 Descending FlightAware
01:55AM -37.7880 145.0660 263° West 184 212 3,300 -840 Descending FlightAware
01:55AM -37.7880 145.0560 270° West 182 209 3,100 -900 Descending FlightAware
01:55AM -37.7910 145.0290 262° West 187 215 2,800 -840 Descending FlightAware
01:56AM -37.7920 145.0080 267° West 185 213 2,500 -780 Descending FlightAware
01:56AM -37.7930 144.9970 263° West 180 207 2,400 -540 Descending FlightAware
01:56AM -37.7930 144.9710 270° West 169 194 2,200 -480 Descending FlightAware
01:57AM -37.7940 144.9560 265° West 154 177 2,100 -720 Descending FlightAware
01:57AM -37.7929 144.9274 265° West 132 152 1,600 -300 Descending Aus ATC (RADAR)
01:57AM -37.7920 144.9260 265° West 121 139 1,900 240 Climbing FlightAware
01:58AM -37.7890 144.9150 289° West 118 136 1,700 -600 Descending FlightAware
01:58AM -37.7830 144.9090 322° Northwest 122 140 1,600 -600 Descending FlightAware
01:58AM -37.7740 144.9050 341° North 126 145 1,400 -600 Descending FlightAware
01:58AM -37.7610 144.9030 353° North 120 138 1,200 -360 Descending FlightAware
01:59AM -37.7450 144.9020 357° North 118 136 1,100 -360 Descending FlightAware
02:00AM -37.7300 144.9010 357° North 95 109 800 -600 Descending FlightAware
02:02AM -37.7267 144.9000 268° West  Level FlightAware Approximate
02:03AM -37.7281 144.9019 268° West  Level Estimated
02:04AM -37.7267 144.9000 268° West  Level FlightAware Approximate
02:05AM -37.7281 144.9019 268° West  Level Estimated
02:06AM -37.7267 144.9000 268° West  Level FlightAware Approximate